Jepson Prairie Reserve, California Weather observations

Data are for 10 minute period ending at time listed.
 Day   Time   Solar   Ave.   Ave.  Ave.  Vector  Max.   Baro.   Total    
  of    of     Rad.   Air    Rel.  Wind   Wind   Wind  Press.  Precip.   
Year   Day            Temp.  Hum.  Speed  Dir.   Gust                    
2014   (PST)  Kw/m2    F      %     mph   deg.    mph    mb.     in.     
-------------------------------------------------------------------------
 233    0:00   0.00   60.1    86   17.0   215    21.8   1010.2    0.00 
 233    0:10   0.00   59.9    87   17.7   219    22.8   1010.2    0.00 
 233    0:20   0.00   59.9    87   18.0   217    22.4   1010.2    0.00 
 233    0:30   0.00   59.8    87   18.1   219    22.5   1010.2    0.00 
 233    0:40   0.00   59.7    87   18.2   223    23.0   1010.2    0.00 
 233    0:50   0.00   59.7    87   18.3   224    23.8   1010.2    0.00 
 233    1:00   0.00   59.7    88   15.7   222    21.0   1010.2    0.00 
 233    1:10   0.00   59.6    88   16.4   222    21.6   1009.8    0.00 
 233    1:20   0.00   59.6    88   16.0   223    23.5   1010.2    0.00 
 233    1:30   0.00   59.6    88   17.0   226    20.3   1010.2    0.00 
 233    1:40   0.00   59.6    88   16.4   226    21.3   1010.2    0.00 
 233    1:50   0.00   59.5    88   15.8   226    20.8   1010.2    0.00 
 233    2:00   0.00   59.4    88   15.6   222    20.4   1010.2    0.00 
 233    2:10   0.00   59.4    88   16.1   220    20.6   1010.2    0.00 
 233    2:20   0.00   59.3    88   16.9   219    20.6   1010.2    0.00 
 233    2:30   0.00   59.2    89   16.7   220    21.5   1010.2    0.00 
 233    2:40   0.00   59.1    89   16.1   219    20.9   1010.2    0.00 
 233    2:50   0.00   58.9    89   15.6   219    18.9   1010.2    0.00 
 233    3:00   0.00   58.8    90   15.1   221    18.1   1010.2    0.00 
 233    3:10   0.00   58.7    90   15.1   221    19.3   1010.2    0.00 
 233    3:20   0.00   58.7    90   14.8   222    18.3   1010.2    0.00 
 233    3:30   0.00   58.6    90   14.4   223    18.0   1010.2    0.00 
 233    3:40   0.00   58.7    90   14.8   224    18.6   1010.2    0.00 
 233    3:50   0.00   58.6    90   14.3   224    18.4   1010.2    0.00 
 233    4:00   0.00   58.5    91   13.5   224    16.7   1010.2    0.00 
 233    4:10   0.00   58.4    91   13.5   221    16.4   1010.2    0.00 
 233    4:20   0.00   58.3    91   12.6   222    16.4   1010.2    0.00 
 233    4:30   0.00   58.2    91   11.7   220    15.0   1010.5    0.00 
 233    4:40   0.00   58.3    92   12.5   223    16.1   1010.5    0.00 
 233    4:50   0.00   58.3    92   11.7   224    14.8   1010.5    0.00 
 233    5:00   0.00   58.3    92   12.7   225    16.6   1010.5    0.00 
 233    5:10   0.00   58.3    92   12.6   222    15.8   1010.5    0.00 
 233    5:20   0.00   58.2    92   11.8   222    15.2   1010.8    0.00 
 233    5:30   0.00   57.9    92   10.7   225    13.4   1010.8    0.00 
 233    5:40   0.01   57.7    92    9.7   227    12.6   1010.8    0.00 
 233    5:50   0.03   57.9    92    9.9   228    13.2   1011.2    0.00 
 233    6:00   0.05   58.2    92    9.9   226    13.4   1011.2    0.00 
 233    6:10   0.07   58.5    92   10.2   228    12.8   1011.5    0.00 
 233    6:20   0.09   58.9    91   10.3   227    12.8   1011.5    0.00 
 233    6:30   0.11   59.4    91   11.1   226    14.5   1011.5    0.00 
 233    6:40   0.15   60.0    90   12.3   224    16.2   1011.5    0.00 
 233    6:50   0.18   60.5    89   12.6   225    15.6   1011.9    0.00 
 233    7:00   0.21   61.1    87   12.5   225    16.1   1011.9    0.00 
 233    7:10   0.24   61.8    85   12.3   226    15.9   1011.9    0.00 
 233    7:20   0.28   62.5    83   11.7   230    15.2   1012.2    0.00 
 233    7:30   0.31   63.3    81   10.8   228    14.8   1012.2    0.00 
 233    7:40   0.34   63.9    79   11.3   227    14.0   1012.2    0.00 
 233    7:50   0.37   64.7    77   10.2   227    12.9   1012.2    0.00 
 233    8:00   0.40   65.3    75   10.3   227    13.3   1012.2    0.00 
 233    8:10   0.43   66.0    74   10.3   228    14.2   1012.2    0.00 
 233    8:20   0.46   66.9    72    8.6   229    12.7   1012.2    0.00 
 233    8:30   0.49   67.6    70    9.0   226    11.9   1012.5    0.00 
 233    8:40   0.52   68.3    69    6.6   223    10.0   1012.5    0.00 
 233    8:50   0.55   69.3    67    5.2   239     9.2   1012.5    0.00 
 233    9:00   0.58   70.6    66    4.5   253     8.6   1012.5    0.00 
 233    9:10   0.60   71.1    63    3.4   230     7.2   1012.5    0.00 
 233    9:20   0.63   71.2    62    4.1   220     8.1   1012.5    0.00 
 233    9:30   0.66   72.1    61    5.0   236     8.0   1012.5    0.00 
 233    9:40   0.68   72.7    59    3.8   244     8.0   1012.2    0.00 
 233    9:50   0.70   73.8    57    4.2   260     7.8   1012.2    0.00 
 233   10:00   0.73   74.2    56    2.8   218     6.5   1012.2    0.00 
 233   10:10   0.74   74.7    55    2.6   229     6.6   1012.2    0.00 
 233   10:20   0.76   75.8    53    3.8   207     8.6   1011.9    0.00 
 233   10:30   0.78   76.2    52    4.7   194     8.3   1011.9    0.00 
 233   10:40   0.79   76.8    51    3.3   224     7.4   1011.9    0.00 
 233   10:50   0.81   77.9    49    3.6   207     7.3   1011.9    0.00 
 233   11:00   0.82   78.2    49    4.1   201     9.6   1011.5    0.00 
 233   11:10   0.83   78.7    48    4.2   199     8.6   1011.5    0.00 
 233   11:20   0.83   79.4    47    4.2   193     8.0   1011.2    0.00 
 233   11:30   0.84   80.8    45    2.1   246     8.6   1011.2    0.00 
 233   11:40   0.85   81.5    44    4.6   161     9.1   1011.2    0.00 
 233   11:50   0.86   81.7    43    4.3   140     8.3   1010.8    0.00 
 233   12:00   0.86   82.3    43    5.6   170    21.3   1010.8    0.00 
 233   12:10   0.86   82.5    42    5.2   166    10.4   1010.8    0.00 
 233   12:20   0.86   83.0    41    5.7   192    10.1   1010.8    0.00 
 233   12:30   0.86   83.7    40    4.9   213    12.2   1010.8    0.00 
 233   12:40   0.86   84.3    39    6.2   245    11.2   1010.8    0.00 
 233   12:50   0.85   84.4    40    6.3   251    12.6   1010.8    0.00 
 233   13:00   0.84   85.3    39   10.5   224    17.9   1010.5    0.00 
 233   13:10   0.84   84.8    39   10.1   213    17.1   1010.5    0.00 
 233   13:20   0.83   85.8    38    8.1   188    14.0   1010.5    0.00 
 233   13:30   0.82   86.0    39    7.9   219    13.4   1010.2    0.00 
 233   13:40   0.80   86.2    39    8.4   223    16.4   1010.2    0.00 
 233   13:50   0.79   86.6    38   10.0   232    16.4   1010.2    0.00 
 233   14:00   0.77   86.5    38   12.2   230    18.8   1010.2    0.00 
 233   14:10   0.76   86.4    38   12.7   239    17.5   1010.2    0.00 
 233   14:20   0.74   86.5    38   13.1   233    21.9   1010.2    0.00 
 233   14:30   0.72   87.1    37   13.1   225    18.3   1009.8    0.00 
 233   14:40   0.69   86.6    38   13.2   235    18.1   1009.8    0.00 
 233   14:50   0.67   86.8    37   14.5   235    19.5   1009.8    0.00 
 233   15:00   0.65   86.9    36   16.1   230    22.4   1009.5    0.00 
 233   15:10   0.62   87.0    36   15.0   235    20.1   1009.5    0.00 
 233   15:20   0.60   87.4    35   16.3   234    22.1   1009.5    0.00 
 233   15:30   0.57   87.6    34   15.6   222    21.5   1009.1    0.00 
 233   15:40   0.54   87.5    34   16.4   228    21.1   1009.1    0.00 
 233   15:50   0.51   87.6    34   17.4   223    22.4   1009.1    0.00 
 233   16:00   0.48   87.3    34   16.7   228    21.5   1009.1    0.00 
 233   16:10   0.45   87.2    34   17.2   226    27.0   1008.8    0.00 
 233   16:20   0.42   86.9    35   16.9   228    22.5   1008.8    0.00 
 233   16:30   0.39   86.8    36   18.0   227    23.4   1008.8    0.00 
 233   16:40   0.36   85.9    37   18.2   230    23.8   1008.8    0.00 
 233   16:50   0.33   85.5    38   19.2   232    23.6   1008.8    0.00 
 233   17:00   0.30   85.0    39   18.7   225    24.0   1008.8    0.00 
 233   17:10   0.27   84.6    41   17.4   224    21.0   1008.8    0.00 
 233   17:20   0.23   84.0    42   17.5   220    21.8   1008.8    0.00 
 233   17:30   0.20   83.5    43   17.7   219    22.6   1008.5    0.00 
 233   17:40   0.17   82.5    44   18.1   225    22.1   1008.5    0.00 
 233   17:50   0.14   81.9    45   17.2   225    21.3   1008.5    0.00 
 233   18:00   0.11   81.0    46   17.6   222    21.8   1008.5    0.00 
 233   18:10   0.08   79.8    48   17.4   218    21.8   1008.5    0.00 
 233   18:20   0.06   78.9    50   16.4   221    20.9   1008.5    0.00 
 233   18:30   0.04   77.8    52   17.8   225    22.8   1008.5    0.00 
 233   18:40   0.02   76.5    54   18.0   219    23.2   1008.8    0.00 
 233   18:50   0.01   75.5    55   17.5   211    22.1   1008.8    0.00 
 233   19:00   0.00   74.4    57   16.1   209    20.3   1008.8    0.00 
 233   19:10   0.00   73.4    59   16.1   210    20.4   1009.1    0.00 
 233   19:20   0.00   72.6    60   16.9   214    21.2   1009.1    0.00 
 233   19:30   0.00   71.6    62   16.0   213    21.0   1009.1    0.00 
 233   19:40   0.00   71.0    63   15.4   209    20.5   1009.5    0.00 
 233   19:50   0.00   70.6    63   12.6   200    19.4   1009.5    0.00 
 233   20:00   0.00   70.1    65   14.4   208    19.5   1009.5    0.00 
 233   20:10   0.00   69.6    66   17.1   209    21.0   1009.5    0.00 
 233   20:20   0.00   69.3    66   18.0   210    22.4   1009.5    0.00 
 233   20:30   0.00   69.1    66   17.7   214    22.4   1009.5    0.00 
 233   20:40   0.00   68.8    67   17.6   209    22.0   1009.5    0.00 
 233   20:50   0.00   68.6    68   17.8   207    22.1   1009.5    0.00 
 233   21:00   0.00   67.8    71   15.9   204    19.9   1009.5    0.00 
 233   21:10   0.00   67.0    74   17.4   199    21.8   1009.5    0.00 
 233   21:20   0.00   66.8    75   18.3   198    22.4   1009.5    0.00 
 233   21:30   0.00   66.4    76   17.7   198    21.8   1009.5    0.00 
 233   21:40   0.00   66.1    76   17.0   200    21.8   1009.5    0.00 
 233   21:50   0.00   65.9    76   17.7   200    22.4   1009.5    0.00 
 233   22:00   0.00   65.7    76   18.4   202    22.5   1009.5    0.00 

Return to Jepson Prairie Reserve graphs page.


Western Regional Climate Center,wrcc@dri.edu